Flight Track Log - Related Links

Times and Time Zones

All times are in EDT time to prevent confusion due to time zone crossing. See the UAL4788 flight status page for this flight to view local times or setup timezone preferences in your user account.

Time Position Orientation Groundspeed Altitude Reporting Facility
EDT Latitude Longitude Course Direction KTS MPH feet Rate Location/Type
Tue 05:59:10 AM 42.9394 -83.6831 100° East 195 224 2,500  Level Cleveland Center
Tue 05:59:59 AM 42.9475 -83.6239 79° East 209 241 3,300 1,046 Climbing Cleveland Center
Tue 06:00:59 AM 42.9411 -83.5469 96° East 193 222 4,400 942 Climbing Cleveland Center
Tue 06:02:00 AM 42.9114 -83.4861 124° Southeast 215 247 5,200 843 Climbing Cleveland Center
Tue 06:03:00 AM 42.8756 -83.4164 125° Southeast 218 251 6,100 843 Climbing Cleveland Center
Tue 06:04:00 AM 42.7029 -83.4156 100° East  Level Estimated
Tue 06:04:01 AM 42.8375 -83.3467 127° Southeast 224 258 6,900  Level Cleveland Center
Tue 06:04:57 AM 42.8058 -83.2831 124° Southeast 256 295 7,000 52 Climbing Cleveland Center
Tue 06:05:57 AM 42.7531 -83.2186 138° Southeast 263 303 7,000  Level Cleveland Center
Tue 06:06:57 AM 42.6942 -83.1567 142° Southeast 263 303 7,000  Level Cleveland Center
Tue 06:07:57 AM 42.6372 -83.0922 140° Southeast 268 308 7,000  Level Cleveland Center
Tue 06:08:57 AM 42.5842 -83.0308 140° Southeast 268 308 7,000  Level Cleveland Center
Tue 06:09:57 AM 42.5292 -82.9667 139° Southeast 263 303 7,000  Level Cleveland Center
Tue 06:10:57 AM 42.4764 -82.9058 140° Southeast 263 303 7,000  Level Cleveland Center
Tue 06:11:57 AM 42.4214 -82.8444 141° Southeast 258 297 7,000  Level Cleveland Center
Tue 06:12:57 AM 42.3661 -82.7836 141° Southeast 258 297 7,000  Level Cleveland Center
Tue 06:13:57 AM 42.3131 -82.7228 140° Southeast 253 291 7,000  Level Cleveland Center
Tue 06:14:57 AM 42.2600 -82.6619 140° Southeast 253 291 7,000  Level Cleveland Center
Tue 06:15:57 AM 42.2069 -82.6014 140° Southeast 253 291 7,000  Level Cleveland Center
Tue 06:17:08 AM 42.1372 -82.5264 141° Southeast 253 291 7,000  Level Cleveland Center
Tue 06:17:57 AM 42.0922 -82.4803 143° Southeast 251 289 7,000  Level Cleveland Center
Tue 06:18:57 AM 42.0369 -82.4172 140° Southeast 251 289 7,000  Level Cleveland Center
Tue 06:19:57 AM 41.9900 -82.3628 139° Southeast 253 291 7,000  Level Cleveland Center
Tue 06:20:57 AM 41.9367 -82.3025 140° Southeast 253 291 7,000  Level Cleveland Center
Tue 06:21:57 AM 41.8833 -82.2453 141° Southeast 253 291 7,000  Level Cleveland Center
Tue 06:22:57 AM 41.8278 -82.1911 144° Southeast 253 291 7,000  Level Cleveland Center
Tue 06:23:57 AM 41.7700 -82.1450 149° Southeast 248 285 7,000  Level Cleveland Center
Tue 06:24:12 AM 41.7494 -82.1278 148° Southeast 247 284 7,000  Level Cleveland Center
Tue 06:24:57 AM 41.7039 -82.0933 151° Southeast 243 280 7,000  Level Cleveland Center
Tue 06:25:13 AM 41.6894 -82.0847 156° South 247 284 7,000  Level Cleveland Center
Tue 06:25:57 AM 41.6442 -82.0475 148° Southeast 243 280 7,000  Level Cleveland Center
Tue 06:26:13 AM 41.6275 -82.0389 159° South 246 283 7,000 -1,100 Level Cleveland Center
Tue 06:26:57 AM 41.6056 -81.9717 114° Southeast 243 280 5,900 -1,473 Descending Cleveland Center
Tue 06:28:03 AM 41.5775 -81.8767 112° Southeast 257 296 4,300 -905 Descending Cleveland Center
Tue 06:29:03 AM 41.5825 -81.7933 85° East 214 246 4,000 -157 Descending Cleveland Center
Tue 06:29:58 AM 41.5539 -81.7458 129° Southeast 193 222 4,000 -365 Level Cleveland Center
Tue 06:30:58 AM 41.5019 -81.7225 161° South 188 216 3,300 -843 Descending Cleveland Center
Tue 06:31:59 AM 41.4639 -81.7719 224° Southwest 189 217 2,300 -828 Descending Cleveland Center
Tue 06:32:54 AM 41.4428 -81.8075 232° Southwest 135 155 1,700 -655 Descending Cleveland Center
Tue 06:34:00 AM 41.4000 -81.8500 143° Southeast  Level FlightAware Approximate
Tue 06:41:00 AM 41.4094 -81.8547 143° Southeast  Level Estimated
Tue 06:42:00 AM 41.4094 -81.8547 143° Southeast  Level Estimated

Login

Don't have an account? Register now (free) for customized features, flight alerts, and more!